createdAt,value
2023-05-14T00:00:39.936Z,100.00
2023-05-14T00:03:06.536Z,100.00
2023-05-14T00:05:33.083Z,100.00
2023-05-14T00:07:59.341Z,100.00
2023-05-14T00:10:27.360Z,100.00
2023-05-14T00:12:53.901Z,100.00
2023-05-14T00:15:20.513Z,100.00
2023-05-14T00:17:46.839Z,100.00
2023-05-14T00:20:13.336Z,100.00
2023-05-14T00:22:40.283Z,100.00
2023-05-14T00:25:07.902Z,100.00
2023-05-14T00:27:35.240Z,100.00
2023-05-14T00:30:01.570Z,100.00
2023-05-14T00:32:27.917Z,100.00
2023-05-14T00:34:54.207Z,100.00
2023-05-14T00:37:20.579Z,100.00
2023-05-14T00:39:46.910Z,100.00
2023-05-14T00:42:13.239Z,100.00
2023-05-14T00:44:39.542Z,100.00
2023-05-14T00:47:06.179Z,100.00
2023-05-14T00:49:32.800Z,100.00
2023-05-14T00:52:00.350Z,100.00
2023-05-14T00:54:28.034Z,100.00
2023-05-14T00:56:54.981Z,100.00
2023-05-14T00:59:21.251Z,100.00
2023-05-14T01:01:47.730Z,100.00
2023-05-14T01:04:14.254Z,100.00
2023-05-14T01:07:03.729Z,100.00
2023-05-14T01:09:36.020Z,100.00
2023-05-14T01:12:21.159Z,100.00
2023-05-14T01:15:10.858Z,100.00
2023-05-14T01:17:48.471Z,100.00
2023-05-14T01:20:15.555Z,100.00
2023-05-14T01:22:42.489Z,100.00
2023-05-14T01:25:09.202Z,100.00
2023-05-14T01:27:38.483Z,100.00
2023-05-14T01:30:21.932Z,100.00
2023-05-14T01:32:53.322Z,100.00
2023-05-14T01:35:24.907Z,100.00
2023-05-14T01:37:53.297Z,100.00
2023-05-14T01:40:19.855Z,100.00
2023-05-14T01:42:46.419Z,100.00
2023-05-14T01:45:12.766Z,100.00
2023-05-14T01:47:39.128Z,100.00
2023-05-14T01:50:05.913Z,100.00
2023-05-14T01:52:32.183Z,100.00
2023-05-14T01:54:59.840Z,100.00
2023-05-14T01:57:26.235Z,100.00
2023-05-14T01:59:52.601Z,100.00
2023-05-14T02:02:18.924Z,100.00
2023-05-14T02:04:45.360Z,100.00
2023-05-14T02:07:11.704Z,100.00
2023-05-14T02:09:38.107Z,100.00
2023-05-14T02:12:04.600Z,100.00
2023-05-14T02:14:31.307Z,100.00
2023-05-14T02:16:57.847Z,100.00
2023-05-14T02:19:24.410Z,100.00
2023-05-14T02:21:50.685Z,100.00
2023-05-14T02:24:17.015Z,100.00
2023-05-14T02:26:43.365Z,100.00
2023-05-14T02:29:09.674Z,100.00
2023-05-14T02:31:36.000Z,100.00
2023-05-14T02:34:03.000Z,100.00
2023-05-14T02:36:29.310Z,100.00
2023-05-14T02:38:55.594Z,100.00
2023-05-14T02:41:21.882Z,100.00
2023-05-14T02:43:48.317Z,100.00
2023-05-14T02:46:14.684Z,100.00
2023-05-14T02:48:41.075Z,100.00
2023-05-14T02:51:08.015Z,100.00
2023-05-14T02:53:34.300Z,100.00
2023-05-14T02:56:00.763Z,100.00
2023-05-14T02:58:28.419Z,100.00
2023-05-14T03:00:55.226Z,100.00
2023-05-14T03:03:22.071Z,100.00
2023-05-14T03:05:48.954Z,100.00
2023-05-14T03:08:15.400Z,100.00
2023-05-14T03:10:41.747Z,100.00
2023-05-14T03:13:08.108Z,100.00
2023-05-14T03:15:34.382Z,100.00
2023-05-14T03:18:00.689Z,100.00
2023-05-14T03:20:27.180Z,100.00
2023-05-14T03:22:54.305Z,100.00
2023-05-14T03:25:20.600Z,100.00
2023-05-14T03:27:47.109Z,100.00
2023-05-14T03:30:13.667Z,100.00
2023-05-14T03:32:40.675Z,100.00
2023-05-14T03:35:07.840Z,100.00
2023-05-14T03:37:34.153Z,100.00
2023-05-14T03:40:00.493Z,100.00
2023-05-14T03:42:27.035Z,100.00
2023-05-14T03:44:53.328Z,100.00
2023-05-14T03:47:19.617Z,100.00
2023-05-14T03:49:46.219Z,100.00
2023-05-14T03:52:12.540Z,100.00
2023-05-14T03:54:41.003Z,100.00
2023-05-14T03:57:07.294Z,100.00
2023-05-14T03:59:33.691Z,100.00
2023-05-14T04:02:00.104Z,100.00
2023-05-14T04:04:26.482Z,100.00
2023-05-14T04:06:52.878Z,100.00
2023-05-14T04:09:19.164Z,100.00
2023-05-14T04:11:46.104Z,100.00
2023-05-14T04:14:12.781Z,100.00
2023-05-14T04:16:39.118Z,100.00
2023-05-14T04:19:06.232Z,100.00
2023-05-14T04:21:32.657Z,100.00
2023-05-14T04:23:58.952Z,100.00
2023-05-14T04:26:25.372Z,100.00
2023-05-14T04:28:52.015Z,100.00
2023-05-14T04:31:18.299Z,100.00
2023-05-14T04:33:44.614Z,100.00
2023-05-14T04:36:10.886Z,100.00
2023-05-14T04:38:37.132Z,100.00
2023-05-14T04:41:03.544Z,100.00
2023-05-14T04:43:29.871Z,100.00
2023-05-14T04:45:56.192Z,100.00
2023-05-14T04:48:22.541Z,100.00
2023-05-14T04:50:48.833Z,100.00
2023-05-14T04:53:15.387Z,100.00
2023-05-14T04:55:42.035Z,100.00
2023-05-14T04:58:08.333Z,100.00
2023-05-14T05:00:34.729Z,100.00
2023-05-14T05:03:01.261Z,100.00
2023-05-14T05:05:27.728Z,100.00
2023-05-14T05:07:54.259Z,100.00
2023-05-14T05:10:20.727Z,100.00
2023-05-14T05:12:47.113Z,100.00
2023-05-14T05:15:13.457Z,100.00
2023-05-14T05:17:39.785Z,100.00
2023-05-14T05:20:09.610Z,100.00
2023-05-14T05:22:36.601Z,100.00
2023-05-14T05:25:06.095Z,100.00
2023-05-14T05:27:35.697Z,100.00
2023-05-14T05:30:02.239Z,100.00
2023-05-14T05:32:28.571Z,100.00
2023-05-14T05:34:55.037Z,100.00
2023-05-14T05:37:21.327Z,100.00
2023-05-14T05:39:48.247Z,100.00
2023-05-14T05:42:14.737Z,100.00
2023-05-14T05:44:41.240Z,100.00
2023-05-14T05:47:07.525Z,100.00
2023-05-14T05:49:33.888Z,100.00
2023-05-14T05:52:00.202Z,100.00
2023-05-14T05:54:27.064Z,100.00
2023-05-14T05:56:53.328Z,100.00
2023-05-14T05:59:19.607Z,100.00
2023-05-14T06:01:45.874Z,100.00
2023-05-14T06:04:12.224Z,100.00
2023-05-14T06:06:38.501Z,100.00
2023-05-14T06:09:06.679Z,100.00
2023-05-14T06:11:32.968Z,100.00
2023-05-14T06:13:59.244Z,100.00
2023-05-14T06:16:25.672Z,100.00
2023-05-14T06:18:55.746Z,100.00
2023-05-14T06:21:22.097Z,100.00
2023-05-14T06:23:48.466Z,100.00
2023-05-14T06:26:14.812Z,100.00
2023-05-14T06:28:41.118Z,100.00
2023-05-14T06:31:07.403Z,100.00
2023-05-14T06:33:33.715Z,100.00
2023-05-14T06:36:01.028Z,100.00
2023-05-14T06:38:27.416Z,100.00
2023-05-14T06:40:53.686Z,100.00
2023-05-14T06:43:19.964Z,100.00
2023-05-14T06:45:50.104Z,100.00
2023-05-14T06:48:18.689Z,100.00
2023-05-14T06:50:46.264Z,100.00
2023-05-14T06:53:12.850Z,100.00
2023-05-14T06:55:39.381Z,100.00
2023-05-14T06:58:09.385Z,100.00
2023-05-14T07:00:35.734Z,100.00
2023-05-14T07:03:02.038Z,100.00
2023-05-14T07:05:28.434Z,100.00
2023-05-14T07:07:55.126Z,100.00
2023-05-14T07:10:22.001Z,100.00
2023-05-14T07:12:49.130Z,100.00
2023-05-14T07:15:16.573Z,100.00
2023-05-14T07:17:42.992Z,100.00
2023-05-14T07:20:09.926Z,100.00
2023-05-14T07:22:36.248Z,100.00
2023-05-14T07:25:03.031Z,100.00
2023-05-14T07:27:29.403Z,100.00
2023-05-14T07:29:55.692Z,100.00
2023-05-14T07:32:22.072Z,100.00
2023-05-14T07:34:48.731Z,100.00
2023-05-14T07:37:15.184Z,99.16
2023-05-14T07:39:41.673Z,100.00
2023-05-14T07:42:08.114Z,100.00
2023-05-14T07:44:34.423Z,95.26
2023-05-14T07:47:01.520Z,92.63
2023-05-14T07:49:27.836Z,93.56
2023-05-14T07:51:54.194Z,86.03
2023-05-14T07:54:20.579Z,85.99
2023-05-14T07:56:46.857Z,89.73
2023-05-14T07:59:13.456Z,78.11
2023-05-14T08:01:39.779Z,77.49
2023-05-14T08:04:06.234Z,75.70
2023-05-14T08:06:33.132Z,75.95
2023-05-14T08:08:59.539Z,74.83
2023-05-14T08:11:26.186Z,80.60
2023-05-14T08:13:52.713Z,80.22
2023-05-14T08:16:19.127Z,87.77
2023-05-14T08:18:45.497Z,96.43
2023-05-14T08:21:11.811Z,88.25
2023-05-14T08:23:38.118Z,77.29
2023-05-14T08:26:05.326Z,80.50
2023-05-14T08:28:31.790Z,77.19
2023-05-14T08:30:58.181Z,72.17
2023-05-14T08:33:24.565Z,80.09
2023-05-14T08:35:54.066Z,69.68
2023-05-14T08:38:20.535Z,75.11
2023-05-14T08:40:58.196Z,64.55
2023-05-14T08:43:34.905Z,67.35
2023-05-14T08:46:05.215Z,67.40
2023-05-14T08:48:34.805Z,69.46
2023-05-14T08:51:01.887Z,73.43
2023-05-14T08:53:28.414Z,67.60
2023-05-14T08:55:54.785Z,69.42
2023-05-14T08:58:21.198Z,70.81
2023-05-14T09:00:47.671Z,67.67
2023-05-14T09:03:14.869Z,62.54
2023-05-14T09:05:41.481Z,65.61
2023-05-14T09:08:07.792Z,59.63
2023-05-14T09:10:34.108Z,60.50
2023-05-14T09:13:00.502Z,61.37
2023-05-14T09:15:29.028Z,66.27
2023-05-14T09:17:56.586Z,64.57
2023-05-14T09:20:24.357Z,65.54
2023-05-14T09:22:54.411Z,66.73
2023-05-14T09:25:26.963Z,61.73
2023-05-14T09:27:56.107Z,65.17
2023-05-14T09:30:24.753Z,60.74
2023-05-14T09:32:53.861Z,50.67
2023-05-14T09:35:23.954Z,52.39
2023-05-14T09:37:52.712Z,53.87
2023-05-14T09:40:20.964Z,49.94
2023-05-14T09:42:50.783Z,46.88
2023-05-14T09:45:17.322Z,47.30
2023-05-14T09:47:44.958Z,49.91
2023-05-14T09:50:11.716Z,49.53
2023-05-14T09:52:38.370Z,49.88
2023-05-14T09:55:05.505Z,48.62
2023-05-14T09:57:31.886Z,47.78
2023-05-14T09:59:58.260Z,46.84
2023-05-14T10:02:29.346Z,46.43
2023-05-14T10:05:00.724Z,48.26
2023-05-14T10:07:31.422Z,46.88
2023-05-14T10:10:01.653Z,45.80
2023-05-14T10:12:36.667Z,45.30
2023-05-14T10:15:19.827Z,47.96
2023-05-14T10:17:52.738Z,47.55
2023-05-14T10:20:20.692Z,49.17
2023-05-14T10:22:47.152Z,51.57
2023-05-14T10:25:13.870Z,49.25
2023-05-14T10:27:42.214Z,48.42
2023-05-14T10:30:12.585Z,46.96
2023-05-14T10:32:41.628Z,47.64
2023-05-14T10:35:22.661Z,47.43
2023-05-14T10:37:51.317Z,46.21
2023-05-14T10:40:19.147Z,47.02
2023-05-14T10:42:46.558Z,45.42
2023-05-14T10:45:14.615Z,46.54
2023-05-14T10:47:48.521Z,44.68
2023-05-14T10:50:15.875Z,44.60
2023-05-14T10:52:43.504Z,45.39
2023-05-14T10:55:13.878Z,47.75
2023-05-14T10:57:43.251Z,48.43
2023-05-14T11:00:12.723Z,46.73
2023-05-14T11:02:44.260Z,47.29
2023-05-14T11:05:17.297Z,48.07
2023-05-14T11:07:46.575Z,47.14
2023-05-14T11:10:17.979Z,48.56
2023-05-14T11:12:49.521Z,47.52
2023-05-14T11:15:18.170Z,48.11
2023-05-14T11:17:45.951Z,49.81
2023-05-14T11:20:13.486Z,51.11
2023-05-14T11:22:41.668Z,50.81
2023-05-14T11:25:09.486Z,49.54
2023-05-14T11:27:37.988Z,48.39
2023-05-14T11:30:05.140Z,49.01
2023-05-14T11:32:32.975Z,49.55
2023-05-14T11:35:00.877Z,49.39
2023-05-14T11:37:27.398Z,52.03
2023-05-14T11:39:55.513Z,47.05
2023-05-14T11:42:22.379Z,48.77
2023-05-14T11:44:51.404Z,49.79
2023-05-14T11:47:19.876Z,48.25
2023-05-14T11:49:46.588Z,48.83
2023-05-14T11:52:15.041Z,50.40
2023-05-14T11:54:43.732Z,50.82
2023-05-14T11:57:13.031Z,48.25
2023-05-14T11:59:39.979Z,50.27
2023-05-14T12:02:10.575Z,48.33
2023-05-14T12:04:37.179Z,49.24
2023-05-14T12:07:12.364Z,49.58
2023-05-14T12:09:43.566Z,50.28
2023-05-14T12:12:12.812Z,49.02
2023-05-14T12:14:45.221Z,50.93
2023-05-14T12:17:16.659Z,51.20
2023-05-14T12:19:45.063Z,52.18
2023-05-14T12:22:14.054Z,54.11
2023-05-14T12:24:40.481Z,54.82
2023-05-14T12:27:08.133Z,56.00
2023-05-14T12:29:40.973Z,70.53
2023-05-14T12:32:11.129Z,61.39
2023-05-14T12:34:38.410Z,58.99
2023-05-14T12:37:05.998Z,57.16
2023-05-14T12:39:34.101Z,56.51
2023-05-14T12:42:01.268Z,60.20
2023-05-14T12:44:28.053Z,57.97
2023-05-14T12:46:54.975Z,51.10
2023-05-14T12:49:21.316Z,50.98
2023-05-14T12:51:47.588Z,52.76
2023-05-14T12:54:15.826Z,50.81
2023-05-14T12:56:42.988Z,48.48
2023-05-14T12:59:09.491Z,48.34
2023-05-14T13:01:38.967Z,50.77
2023-05-14T13:04:06.214Z,49.49
2023-05-14T13:06:35.216Z,48.41
2023-05-14T13:09:02.344Z,48.87
2023-05-14T13:11:30.288Z,49.65
2023-05-14T13:13:56.890Z,51.62
2023-05-14T13:16:23.327Z,53.19
2023-05-14T13:18:49.705Z,51.17
2023-05-14T13:21:16.243Z,48.51
2023-05-14T13:23:42.824Z,49.30
2023-05-14T13:26:09.684Z,48.39
2023-05-14T13:28:40.443Z,52.26
2023-05-14T13:31:42.946Z,47.46
2023-05-14T13:38:02.065Z,45.90
2023-05-14T13:40:35.997Z,48.61
2023-05-14T13:43:31.124Z,49.10
2023-05-14T13:46:52.587Z,51.57
2023-05-14T13:53:36.396Z,46.36
2023-05-14T13:59:18.381Z,46.86
2023-05-14T14:01:49.753Z,47.94
2023-05-14T14:04:28.388Z,47.04
2023-05-14T14:10:46.640Z,48.44
2023-05-14T14:13:13.887Z,48.38
2023-05-14T14:16:06.296Z,49.94
2023-05-14T14:21:34.336Z,53.04
2023-05-14T14:24:12.097Z,50.31
2023-05-14T14:26:38.477Z,52.00
2023-05-14T14:32:49.593Z,51.81
2023-05-14T14:35:20.905Z,54.14
2023-05-14T14:37:53.344Z,51.47
2023-05-14T14:40:19.909Z,50.72
2023-05-14T14:42:46.697Z,54.58
2023-05-14T14:45:20.051Z,51.91
2023-05-14T14:48:50.158Z,49.19
2023-05-14T14:52:12.990Z,49.28
2023-05-14T14:55:49.705Z,47.63
2023-05-14T15:01:47.681Z,47.15
2023-05-14T15:07:52.665Z,46.92
2023-05-14T15:24:16.991Z,55.00
2023-05-14T15:26:52.740Z,54.42
2023-05-14T15:30:38.512Z,52.22
2023-05-14T15:36:03.525Z,54.21
2023-05-14T15:39:09.465Z,56.37
2023-05-14T15:45:34.832Z,70.41
2023-05-14T15:48:25.477Z,68.94
2023-05-14T15:54:34.778Z,66.05
2023-05-14T15:57:20.241Z,71.98
2023-05-14T16:03:30.220Z,67.00
2023-05-14T16:06:24.888Z,69.79
2023-05-14T16:15:51.873Z,70.71
2023-05-14T16:18:18.275Z,74.97
2023-05-14T16:20:44.739Z,70.40
2023-05-14T16:23:38.842Z,67.62
2023-05-14T16:26:06.179Z,69.51
2023-05-14T16:28:35.731Z,74.53
2023-05-14T16:31:03.708Z,78.96
2023-05-14T16:33:30.409Z,83.26
2023-05-14T16:35:56.789Z,83.71
2023-05-14T16:38:23.377Z,76.81
2023-05-14T16:40:50.084Z,83.53
2023-05-14T16:43:33.049Z,80.80
2023-05-14T16:45:59.569Z,86.36
2023-05-14T16:48:26.984Z,88.85
2023-05-14T16:50:53.451Z,81.51
2023-05-14T16:53:19.818Z,75.03
2023-05-14T16:55:46.189Z,78.99
2023-05-14T16:58:15.839Z,77.87
2023-05-14T17:00:42.150Z,82.07
2023-05-14T17:03:08.585Z,73.68
2023-05-14T17:05:35.515Z,74.01
2023-05-14T17:08:04.618Z,75.52
2023-05-14T17:10:33.022Z,68.89
2023-05-14T17:13:00.248Z,77.41
2023-05-14T17:15:27.126Z,75.43
2023-05-14T17:17:55.204Z,83.95
2023-05-14T17:20:25.572Z,72.57
2023-05-14T17:22:55.732Z,75.86
2023-05-14T17:25:24.063Z,76.34
2023-05-14T17:27:50.814Z,77.23
2023-05-14T17:30:17.470Z,71.35
2023-05-14T17:32:44.534Z,67.14
2023-05-14T17:35:11.419Z,65.60
2023-05-14T17:37:37.938Z,64.29
2023-05-14T17:43:02.877Z,66.58
2023-05-14T17:45:36.450Z,65.20
2023-05-14T17:48:09.455Z,67.96
2023-05-14T17:50:36.162Z,65.36
2023-05-14T17:53:03.032Z,66.15
2023-05-14T17:55:29.513Z,74.18
2023-05-14T17:57:55.867Z,75.73
2023-05-14T18:00:22.431Z,81.39
2023-05-14T18:02:49.142Z,84.22
2023-05-14T18:05:15.646Z,93.12
2023-05-14T18:07:42.343Z,93.46
2023-05-14T18:10:08.797Z,94.31
2023-05-14T18:15:27.288Z,95.23
2023-05-14T18:17:54.086Z,100.00
2023-05-14T18:20:20.565Z,100.00
2023-05-14T18:22:46.946Z,100.00
2023-05-14T18:25:13.659Z,100.00
2023-05-14T18:27:44.352Z,100.00
2023-05-14T18:30:15.174Z,100.00
2023-05-14T18:32:43.745Z,100.00
2023-05-14T18:35:11.394Z,100.00
2023-05-14T18:37:37.755Z,100.00
2023-05-14T18:40:05.057Z,100.00
2023-05-14T18:42:31.628Z,100.00
2023-05-14T18:44:57.980Z,100.00
2023-05-14T18:47:24.443Z,100.00
2023-05-14T18:49:54.778Z,100.00
2023-05-14T18:52:22.699Z,100.00
2023-05-14T18:54:48.998Z,100.00
2023-05-14T18:57:15.388Z,100.00
2023-05-14T18:59:41.783Z,100.00
2023-05-14T19:02:08.073Z,100.00
2023-05-14T19:04:44.334Z,100.00
2023-05-14T19:07:17.350Z,100.00
2023-05-14T19:09:43.868Z,100.00
2023-05-14T19:12:14.782Z,100.00
2023-05-14T19:14:41.120Z,100.00
2023-05-14T19:17:07.474Z,100.00
2023-05-14T19:19:34.161Z,100.00
2023-05-14T19:22:00.517Z,100.00
2023-05-14T19:24:26.839Z,100.00
2023-05-14T19:26:53.283Z,100.00
2023-05-14T19:29:19.630Z,100.00
2023-05-14T19:31:47.286Z,100.00
2023-05-14T19:34:13.732Z,100.00
2023-05-14T19:36:40.187Z,100.00
2023-05-14T19:39:06.506Z,100.00
2023-05-14T19:41:32.782Z,100.00
2023-05-14T19:43:59.090Z,100.00
2023-05-14T19:46:26.131Z,100.00
2023-05-14T19:48:52.468Z,100.00
2023-05-14T19:51:18.865Z,100.00
2023-05-14T19:53:45.268Z,100.00
2023-05-14T19:56:11.677Z,100.00
2023-05-14T19:58:45.356Z,100.00
2023-05-14T20:01:11.993Z,100.00
2023-05-14T20:03:38.518Z,100.00
2023-05-14T20:06:05.023Z,100.00
2023-05-14T20:08:31.364Z,100.00
2023-05-14T20:10:57.757Z,100.00
2023-05-14T20:13:25.228Z,100.00
2023-05-14T20:15:51.941Z,100.00
2023-05-14T20:18:18.268Z,100.00
2023-05-14T20:20:44.533Z,100.00
2023-05-14T20:23:10.854Z,100.00
2023-05-14T20:25:37.175Z,100.00
2023-05-14T20:28:04.216Z,100.00
2023-05-14T20:30:31.995Z,100.00
2023-05-14T20:32:58.504Z,100.00
2023-05-14T20:35:25.207Z,100.00
2023-05-14T20:37:51.735Z,100.00
2023-05-14T20:40:18.154Z,100.00
2023-05-14T20:42:44.636Z,100.00
2023-05-14T20:45:11.311Z,100.00
2023-05-14T20:47:37.721Z,100.00
2023-05-14T20:50:04.665Z,100.00
2023-05-14T20:52:31.120Z,100.00
2023-05-14T20:55:00.029Z,100.00
2023-05-14T20:57:28.181Z,100.00
2023-05-14T20:59:54.572Z,100.00
2023-05-14T21:02:21.088Z,100.00
2023-05-14T21:04:47.790Z,100.00
2023-05-14T21:07:14.130Z,100.00
2023-05-14T21:09:40.505Z,100.00
2023-05-14T21:12:07.222Z,100.00
2023-05-14T21:14:33.531Z,100.00
2023-05-14T21:16:59.899Z,100.00
2023-05-14T21:19:26.199Z,100.00
2023-05-14T21:21:52.569Z,100.00
2023-05-14T21:24:19.100Z,100.00
2023-05-14T21:26:45.676Z,100.00
2023-05-14T21:29:12.117Z,100.00
2023-05-14T21:31:38.545Z,100.00
2023-05-14T21:34:04.959Z,100.00
2023-05-14T21:36:31.524Z,100.00
2023-05-14T21:38:57.863Z,100.00
2023-05-14T21:41:24.213Z,100.00
2023-05-14T21:43:50.537Z,100.00
2023-05-14T21:46:16.912Z,100.00
2023-05-14T21:48:43.397Z,100.00
2023-05-14T21:51:09.996Z,100.00
2023-05-14T21:53:36.361Z,100.00
2023-05-14T21:56:02.736Z,100.00
2023-05-14T21:58:29.080Z,100.00
2023-05-14T22:00:55.432Z,100.00
2023-05-14T22:03:21.865Z,100.00
2023-05-14T22:05:49.119Z,100.00
2023-05-14T22:08:17.393Z,100.00
2023-05-14T22:10:44.077Z,100.00
2023-05-14T22:13:10.887Z,100.00
2023-05-14T22:15:37.783Z,100.00
2023-05-14T22:18:04.408Z,100.00
2023-05-14T22:20:30.784Z,100.00
2023-05-14T22:22:57.169Z,100.00
2023-05-14T22:25:23.823Z,100.00
2023-05-14T22:27:50.300Z,100.00
2023-05-14T22:30:16.578Z,100.00
2023-05-14T22:32:43.075Z,100.00
2023-05-14T22:35:09.543Z,100.00
2023-05-14T22:37:35.988Z,100.00
2023-05-14T22:40:04.950Z,100.00
2023-05-14T22:42:31.222Z,100.00
2023-05-14T22:44:57.532Z,100.00
2023-05-14T22:47:25.014Z,100.00
2023-05-14T22:49:51.363Z,100.00
2023-05-14T22:52:18.774Z,100.00
2023-05-14T22:54:46.554Z,100.00
2023-05-14T22:57:12.850Z,100.00
2023-05-14T22:59:39.466Z,100.00
2023-05-14T23:02:06.540Z,100.00
2023-05-14T23:04:32.956Z,100.00
2023-05-14T23:06:59.332Z,100.00
2023-05-14T23:09:25.703Z,100.00
2023-05-14T23:11:51.998Z,100.00
2023-05-14T23:14:18.338Z,100.00
2023-05-14T23:16:44.919Z,100.00
2023-05-14T23:19:11.420Z,100.00
2023-05-14T23:21:37.933Z,100.00
2023-05-14T23:24:04.446Z,100.00
2023-05-14T23:26:30.815Z,100.00
2023-05-14T23:28:57.088Z,100.00
2023-05-14T23:31:23.502Z,100.00
2023-05-14T23:33:49.860Z,100.00
2023-05-14T23:36:16.277Z,100.00
2023-05-14T23:38:43.319Z,100.00
2023-05-14T23:41:09.619Z,100.00
2023-05-14T23:43:35.936Z,100.00
2023-05-14T23:46:02.390Z,100.00
2023-05-14T23:48:28.831Z,100.00
2023-05-14T23:50:55.222Z,100.00
2023-05-14T23:53:21.525Z,100.00
2023-05-14T23:55:47.885Z,100.00
2023-05-14T23:58:20.084Z,100.00
